Time;durP1;ratioP1;P1;durP2;ratioP2;P2;SDS_P1;SDS_P2;PMS_P1;PMS_P2;Temp;Humidity;BMP_temperature;BMP_pressure;BME280_temperature;BME280_humidity;BME280_pressure;Samples;Min_cycle;Max_cycle;Signal;HPM_P1;HPM_P2
2020/12/05 00:02:11;;;;;;;;;;;;;;;;;;6172409;23;1125;-83
2020/12/05 00:04:37;;;;;;;;;;;;;;;;;;6170528;23;1897;-83
2020/12/05 00:07:04;;;;;;;;;;;;;;;;;;6172967;23;1039;-83
2020/12/05 00:09:31;;;;;;;;;;;;;;;;;;6172252;23;1074;-83
2020/12/05 00:11:59;;;;;;;;;;;;;;;;;;6171994;23;1042;-83
2020/12/05 00:14:25;;;;;;;;;;;;;;;;;;6171949;23;1258;-83
2020/12/05 00:16:52;;;;;;;;;;;;;;;;;;6171273;23;1039;-83
2020/12/05 00:19:19;;;;;;;;;;;;;;;;;;6170889;23;1082;-83
2020/12/05 00:21:45;;;;;;;;;;;;;;;;;;6171511;23;1065;-83
2020/12/05 00:24:11;;;;;;;;;;;;;;;;;;6170869;23;1909;-83
2020/12/05 00:26:38;;;;;;;;;;;;;;;;;;6170968;23;1169;-82
2020/12/05 00:29:04;;;;;;;;;;;;;;;;;;6170493;23;1190;-83
2020/12/05 00:31:30;;;;;;;;;;;;;;;;;;6170313;23;1133;-82
2020/12/05 00:33:56;;;;;;;;;;;;;;;;;;6170305;23;1062;-82
2020/12/05 00:36:23;;;;;;;;;;;;;;;;;;6170043;23;1151;-82
2020/12/05 00:38:49;;;;;;;;;;;;;;;;;;6169798;23;1077;-82
2020/12/05 00:41:17;;;;;;;;;;;;;;;;;;6171476;23;1163;-83
2020/12/05 00:43:44;;;;;;;;;;;;;;;;;;6170663;23;1946;-83
2020/12/05 00:46:11;;;;;;;;;;;;;;;;;;6171664;23;1071;-82
2020/12/05 00:48:37;;;;;;;;;;;;;;;;;;6170748;23;1398;-83
2020/12/05 00:51:03;;;;;;;;;;;;;;;;;;6170219;23;1135;-83
2020/12/05 00:53:30;;;;;;;;;;;;;;;;;;6170305;23;1098;-80
2020/12/05 00:55:56;;;;;;;;;;;;;;;;;;6171117;23;1098;-82
2020/12/05 00:58:22;;;;;;;;;;;;;;;;;;6195183;23;1643;-82
2020/12/05 01:00:49;;;;;;;;;;;;;;;;;;6169804;23;1564;-81
2020/12/05 01:03:15;;;;;;;;;;;;;;;;;;6171006;23;1933;-83
2020/12/05 01:05:42;;;;;;;;;;;;;;;;;;6169282;23;1151;-83
2020/12/05 01:08:08;;;;;;;;;;;;;;;;;;6170056;23;1111;-83
2020/12/05 01:10:34;;;;;;;;;;;;;;;;;;6171144;23;1099;-83
2020/12/05 01:13:01;;;;;;;;;;;;;;;;;;6171579;23;1094;-83
2020/12/05 01:15:28;;;;;;;;;;;;;;;;;;6171021;23;1126;-82
2020/12/05 01:17:55;;;;;;;;;;;;;;;;;;6170282;23;1115;-82
2020/12/05 01:20:21;;;;;;;;;;;;;;;;;;6171091;23;1111;-83
2020/12/05 01:22:48;;;;;;;;;;;;;;;;;;6170508;23;1091;-82
2020/12/05 01:25:14;;;;;;;;;;;;;;;;;;6170111;23;1965;-82
2020/12/05 01:27:40;;;;;;;;;;;;;;;;;;6169932;23;1110;-82
2020/12/05 01:30:07;;;;;;;;;;;;;;;;;;6171283;23;1120;-82
2020/12/05 01:32:33;;;;;;;;;;;;;;;;;;6169700;23;1111;-82
2020/12/05 01:35:00;;;;;;;;;;;;;;;;;;6170096;23;1035;-82
2020/12/05 01:37:26;;;;;;;;;;;;;;;;;;6169332;23;1513;-83
2020/12/05 01:39:52;;;;;;;;;;;;;;;;;;6170769;23;1090;-83
2020/12/05 01:42:18;;;;;;;;;;;;;;;;;;6169673;23;1142;-82
2020/12/05 01:44:45;;;;;;;;;;;;;;;;;;6170889;23;1870;-82
2020/12/05 01:47:11;;;;;;;;;;;;;;;;;;6171476;23;1183;-83
2020/12/05 01:49:37;;;;;;;;;;;;;;;;;;6173153;23;1083;-82
2020/12/05 01:52:04;;;;;;;;;;;;;;;;;;6173198;23;1446;-83
2020/12/05 01:54:30;;;;;;;;;;;;;;;;;;6172757;23;1110;-82
2020/12/05 01:56:59;;;;;;;;;;;;;;;;;;6172284;23;1174;-82
2020/12/05 01:59:25;;;;;;;;;;;;;;;;;;6172648;23;1269;-83
2020/12/05 02:01:53;;;;;;;;;;;;;;;;;;6173033;23;1228;-83
2020/12/05 02:04:19;;;;;;;;;;;;;;;;;;6171991;23;1927;-83
2020/12/05 02:07:00;;;;;;;;;;;;;;;;;;6174022;23;1103;-83
2020/12/05 02:09:31;;;;;;;;;;;;;;;;;;6173437;23;1074;-83
2020/12/05 02:12:00;;;;;;;;;;;;;;;;;;6173726;23;1079;-83
2020/12/05 02:14:27;;;;;;;;;;;;;;;;;;6173393;23;1085;-83
2020/12/05 02:16:55;;;;;;;;;;;;;;;;;;6173294;23;1090;-83
2020/12/05 02:19:22;;;;;;;;;;;;;;;;;;6175706;23;1135;-83
2020/12/05 02:21:51;;;;;;;;;;;;;;;;;;6172655;23;1047;-82
2020/12/05 02:24:18;;;;;;;;;;;;;;;;;;6173484;23;1889;-83
2020/12/05 02:26:45;;;;;;;;;;;;;;;;;;6173393;23;1610;-83
2020/12/05 02:29:11;;;;;;;;;;;;;;;;;;6174223;23;1103;-83
2020/12/05 02:31:38;;;;;;;;;;;;;;;;;;6173229;23;1126;-83
2020/12/05 02:34:05;;;;;;;;;;;;;;;;;;6173346;23;1110;-82
2020/12/05 02:36:34;;;;;;;;;;;;;;;;;;6173060;23;1120;-83
2020/12/05 02:39:01;;;;;;;;;;;;;;;;;;6174118;23;1202;-83
2020/12/05 02:41:29;;;;;;;;;;;;;;;;;;6175103;23;1047;-82
2020/12/05 02:43:55;;;;;;;;;;;;;;;;;;6173668;23;1915;-82
2020/12/05 02:46:22;;;;;;;;;;;;;;;;;;6172389;23;1111;-83
2020/12/05 02:48:48;;;;;;;;;;;;;;;;;;6172992;23;1178;-83
2020/12/05 02:51:14;;;;;;;;;;;;;;;;;;6173532;23;1094;-83
2020/12/05 02:53:40;;;;;;;;;;;;;;;;;;6173685;23;1123;-83
2020/12/05 02:56:07;;;;;;;;;;;;;;;;;;6173842;23;1135;-83
2020/12/05 02:58:34;;;;;;;;;;;;;;;;;;6173657;23;1064;-82
2020/12/05 03:01:00;;;;;;;;;;;;;;;;;;6197197;23;1088;-83
2020/12/05 03:03:26;;;;;;;;;;;;;;;;;;6173065;23;1912;-82
2020/12/05 03:05:52;;;;;;;;;;;;;;;;;;6173030;23;1146;-82
2020/12/05 03:08:19;;;;;;;;;;;;;;;;;;6173330;23;1134;-83
2020/12/05 03:10:45;;;;;;;;;;;;;;;;;;6174629;23;1117;-83
2020/12/05 03:13:11;;;;;;;;;;;;;;;;;;6173467;23;1221;-83
2020/12/05 03:15:38;;;;;;;;;;;;;;;;;;6173232;23;1162;-82
2020/12/05 03:18:04;;;;;;;;;;;;;;;;;;6172919;23;1322;-83
2020/12/05 03:20:30;;;;;;;;;;;;;;;;;;6172913;23;1067;-83
2020/12/05 03:22:56;;;;;;;;;;;;;;;;;;6171729;23;1323;-82
2020/12/05 03:25:23;;;;;;;;;;;;;;;;;;6172807;23;1946;-82
2020/12/05 03:27:48;;;;;;;;;;;;;;;;;;6172442;23;1227;-83
2020/12/05 03:30:15;;;;;;;;;;;;;;;;;;6173494;23;1083;-82
2020/12/05 03:32:42;;;;;;;;;;;;;;;;;;6172297;23;1042;-82
2020/12/05 03:35:09;;;;;;;;;;;;;;;;;;6053191;23;11128;-83
2020/12/05 03:37:36;;;;;;;;;;;;;;;;;;6170452;23;10122;-82
2020/12/05 03:40:03;;;;;;;;;;;;;;;;;;6169484;23;12662;-82
2020/12/05 03:42:29;;;;;;;;;;;;;;;;;;6173088;23;1170;-83
2020/12/05 03:44:55;;;;;;;;;;;;;;;;;;6167932;23;56332;-83
2020/12/05 03:47:22;;;;;;;;;;;;;;;;;;6171016;23;12679;-82
2020/12/05 03:49:49;;;;;;;;;;;;;;;;;;6171556;23;10487;-82
2020/12/05 03:52:15;;;;;;;;;;;;;;;;;;6172229;23;1134;-82
2020/12/05 03:54:41;;;;;;;;;;;;;;;;;;6172969;23;1090;-82
2020/12/05 03:57:07;;;;;;;;;;;;;;;;;;6170688;23;11814;-83
2020/12/05 03:59:34;;;;;;;;;;;;;;;;;;6171521;23;1119;-82
2020/12/05 04:02:00;;;;;;;;;;;;;;;;;;6170860;23;12682;-82
2020/12/05 04:04:26;;;;;;;;;;;;;;;;;;6171323;23;1901;-83
2020/12/05 04:06:53;;;;;;;;;;;;;;;;;;6171913;23;1517;-82
2020/12/05 04:09:19;;;;;;;;;;;;;;;;;;6173478;23;1103;-83
2020/12/05 04:11:46;;;;;;;;;;;;;;;;;;6172787;23;1099;-82
2020/12/05 04:14:12;;;;;;;;;;;;;;;;;;6094714;23;10586;-83
2020/12/05 04:16:38;;;;;;;;;;;;;;;;;;6169548;23;10909;-82
2020/12/05 04:19:05;;;;;;;;;;;;;;;;;;6172204;23;1082;-82
2020/12/05 04:21:31;;;;;;;;;;;;;;;;;;6172402;23;1078;-83
2020/12/05 04:23:58;;;;;;;;;;;;;;;;;;6172750;23;1929;-82
2020/12/05 04:26:25;;;;;;;;;;;;;;;;;;6172328;23;1151;-83
2020/12/05 04:28:51;;;;;;;;;;;;;;;;;;6172855;23;1075;-82
2020/12/05 04:31:17;;;;;;;;;;;;;;;;;;6172336;23;1203;-83
2020/12/05 04:33:44;;;;;;;;;;;;;;;;;;6172468;23;1138;-82
2020/12/05 04:36:10;;;;;;;;;;;;;;;;;;6173214;23;1139;-82
2020/12/05 04:38:36;;;;;;;;;;;;;;;;;;6172644;23;1135;-82
2020/12/05 04:41:03;;;;;;;;;;;;;;;;;;6172709;23;1086;-83
2020/12/05 04:43:30;;;;;;;;;;;;;;;;;;6173871;23;1194;-83
2020/12/05 04:45:57;;;;;;;;;;;;;;;;;;6172245;23;1917;-83
2020/12/05 04:48:23;;;;;;;;;;;;;;;;;;6172044;23;1095;-83
2020/12/05 04:50:50;;;;;;;;;;;;;;;;;;6171624;23;1103;-83
2020/12/05 04:53:17;;;;;;;;;;;;;;;;;;6172246;23;1023;-82
2020/12/05 04:55:43;;;;;;;;;;;;;;;;;;6172323;23;1403;-82
2020/12/05 04:58:18;;;;;;;;;;;;;;;;;;6171474;23;1104;-83
2020/12/05 05:00:45;;;;;;;;;;;;;;;;;;6172039;23;1095;-82
2020/12/05 05:03:14;;;;;;;;;;;;;;;;;;6170798;23;1482;-82
2020/12/05 05:05:40;;;;;;;;;;;;;;;;;;6170201;23;1897;-82
2020/12/05 05:08:07;;;;;;;;;;;;;;;;;;6169999;23;1145;-82
2020/12/05 05:10:35;;;;;;;;;;;;;;;;;;6171166;23;1159;-82
2020/12/05 05:13:05;;;;;;;;;;;;;;;;;;6171042;23;1077;-82
2020/12/05 05:15:33;;;;;;;;;;;;;;;;;;6171479;23;1072;-83
2020/12/05 05:18:00;;;;;;;;;;;;;;;;;;6171545;23;1111;-82
2020/12/05 05:20:28;;;;;;;;;;;;;;;;;;6171772;23;1073;-82
2020/12/05 05:23:08;;;;;;;;;;;;;;;;;;6195971;23;1358;-82
2020/12/05 05:25:47;;;;;;;;;;;;;;;;;;6173551;23;1944;-83
2020/12/05 05:28:18;;;;;;;;;;;;;;;;;;6170599;23;1103;-82
2020/12/05 05:30:53;;;;;;;;;;;;;;;;;;6172940;23;1158;-83
2020/12/05 05:33:19;;;;;;;;;;;;;;;;;;6171986;23;1179;-82
2020/12/05 05:35:45;;;;;;;;;;;;;;;;;;6173215;23;1126;-82
2020/12/05 05:38:19;;;;;;;;;;;;;;;;;;6173041;23;1112;-82
2020/12/05 05:40:45;;;;;;;;;;;;;;;;;;6172351;23;1086;-82
2020/12/05 05:43:15;;;;;;;;;;;;;;;;;;6197061;23;1108;-82
2020/12/05 05:45:41;;;;;;;;;;;;;;;;;;6172242;23;1906;-82
2020/12/05 05:48:08;;;;;;;;;;;;;;;;;;6171664;23;1152;-82
2020/12/05 05:50:35;;;;;;;;;;;;;;;;;;6172586;23;1194;-81
2020/12/05 05:53:02;;;;;;;;;;;;;;;;;;6173327;23;1141;-81
2020/12/05 05:55:39;;;;;;;;;;;;;;;;;;6169125;23;1192;-82
2020/12/05 05:58:05;;;;;;;;;;;;;;;;;;6191830;23;1479;-82
2020/12/05 06:00:36;;;;;;;;;;;;;;;;;;6168720;23;1134;-82
2020/12/05 06:03:05;;;;;;;;;;;;;;;;;;6167538;23;1134;-82
2020/12/05 06:05:34;;;;;;;;;;;;;;;;;;6166881;23;1904;-82
2020/12/05 06:08:00;;;;;;;;;;;;;;;;;;6166379;23;1214;-82
2020/12/05 06:10:28;;;;;;;;;;;;;;;;;;6167212;23;1055;-82
2020/12/05 06:12:54;;;;;;;;;;;;;;;;;;6166265;23;1351;-82
2020/12/05 06:15:21;;;;;;;;;;;;;;;;;;6165470;23;1175;-81
2020/12/05 06:17:48;;;;;;;;;;;;;;;;;;6164728;23;1194;-81
2020/12/05 06:20:15;;;;;;;;;;;;;;;;;;6165614;23;1254;-81
2020/12/05 06:22:47;;;;;;;;;;;;;;;;;;6165638;23;1117;-81
2020/12/05 06:25:15;;;;;;;;;;;;;;;;;;6165318;23;1909;-81
2020/12/05 06:27:43;;;;;;;;;;;;;;;;;;6164665;23;1198;-81
2020/12/05 06:30:09;;;;;;;;;;;;;;;;;;6164321;23;1083;-81
2020/12/05 06:32:40;;;;;;;;;;;;;;;;;;6157833;23;1105;-82
2020/12/05 06:35:26;;;;;;;;;;;;;;;;;;6161641;23;1158;-82
2020/12/05 06:37:54;;;;;;;;;;;;;;;;;;6162748;23;1047;-81
2020/12/05 06:40:21;;;;;;;;;;;;;;;;;;6184383;23;1399;-81
2020/12/05 06:42:48;;;;;;;;;;;;;;;;;;6162152;23;1107;-81
2020/12/05 06:45:37;;;;;;;;;;;;;;;;;;6160571;23;1897;-81
2020/12/05 06:48:18;;;;;;;;;;;;;;;;;;6160903;23;1458;-81
2020/12/05 06:50:46;;;;;;;;;;;;;;;;;;6160897;23;1224;-81
2020/12/05 06:53:27;;;;;;;;;;;;;;;;;;6160195;23;1068;-81
2020/12/05 06:55:54;;;;;;;;;;;;;;;;;;6160689;23;1122;-82
2020/12/05 06:58:24;;;;;;;;;;;;;;;;;;6160120;23;1055;-81
2020/12/05 07:00:50;;;;;;;;;;;;;;;;;;6159063;23;1077;-82
2020/12/05 07:03:23;;;;;;;;;;;;;;;;;;6160262;23;1311;-81
2020/12/05 07:05:49;;;;;;;;;;;;;;;;;;6158659;23;2000;-81
2020/12/05 07:08:26;;;;;;;;;;;;;;;;;;6158672;23;1035;-81
2020/12/05 07:10:55;;;;;;;;;;;;;;;;;;6158960;23;1098;-81
2020/12/05 07:13:24;;;;;;;;;;;;;;;;;;6158675;23;1088;-81
2020/12/05 07:15:50;;;;;;;;;;;;;;;;;;6158777;23;1056;-82
2020/12/05 07:18:27;;;;;;;;;;;;;;;;;;6158332;23;1219;-80
2020/12/05 07:20:56;;;;;;;;;;;;;;;;;;6157358;23;1020;-81
2020/12/05 07:23:23;;;;;;;;;;;;;;;;;;6157172;23;1079;-81
2020/12/05 07:25:49;;;;;;;;;;;;;;;;;;6157639;23;1940;-81
2020/12/05 07:28:18;;;;;;;;;;;;;;;;;;6156588;23;1072;-80
2020/12/05 07:30:44;;;;;;;;;;;;;;;;;;6154544;23;1010;-81
2020/12/05 07:33:12;;;;;;;;;;;;;;;;;;6150541;23;1078;-79
2020/12/05 07:35:38;;;;;;;;;;;;;;;;;;6152617;23;1083;-81
2020/12/05 07:38:15;;;;;;;;;;;;;;;;;;6152781;23;1082;-79
2020/12/05 07:40:41;;;;;;;;;;;;;;;;;;6153476;23;1071;-81
2020/12/05 07:43:18;;;;;;;;;;;;;;;;;;6153418;23;1123;-79
2020/12/05 07:45:45;;;;;;;;;;;;;;;;;;6152774;23;1944;-79
2020/12/05 07:48:11;;;;;;;;;;;;;;;;;;6151914;23;1138;-80
2020/12/05 07:50:38;;;;;;;;;;;;;;;;;;6151894;23;1077;-79
2020/12/05 07:53:04;;;;;;;;;;;;;;;;;;6149847;23;1035;-78
2020/12/05 07:55:30;;;;;;;;;;;;;;;;;;6153240;23;1048;-80
2020/12/05 07:57:57;;;;;;;;;;;;;;;;;;6152440;23;1134;-80
2020/12/05 08:00:24;;;;;;;;;;;;;;;;;;6152482;23;1292;-80
2020/12/05 08:03:17;;;;;;;;;;;;;;;;;;6151270;23;1143;-80
2020/12/05 08:05:47;;;;;;;;;;;;;;;;;;6031854;23;1902;-79
2020/12/05 08:08:16;;;;;;;;;;;;;;;;;;6031725;23;1036;-80
2020/12/05 08:10:42;;;;;;;;;;;;;;;;;;6032512;23;1004;-81
2020/12/05 08:13:22;;;;;;;;;;;;;;;;;;6032859;23;1016;-81
2020/12/05 08:15:52;;;;;;;;;;;;;;;;;;6033069;23;1183;-80
2020/12/05 08:18:20;;;;;;;;;;;;;;;;;;6032760;23;1013;-81
2020/12/05 08:20:47;;;;;;;;;;;;;;;;;;6032681;23;946;-80
2020/12/05 08:23:23;;;;;;;;;;;;;;;;;;6032665;23;1107;-81
2020/12/05 08:25:50;;;;;;;;;;;;;;;;;;6034193;23;1940;-78
2020/12/05 08:28:19;;;;;;;;;;;;;;;;;;6032604;23;1418;-81
2020/12/05 08:30:45;;;;;;;;;;;;;;;;;;6029332;23;1026;-80
2020/12/05 08:33:13;;;;;;;;;;;;;;;;;;6030339;23;1020;-81
2020/12/05 08:35:39;;;;;;;;;;;;;;;;;;6007224;23;1100;-80
2020/12/05 08:38:05;;;;;;;;;;;;;;;;;;6031202;23;1156;-82
2020/12/05 08:40:31;;;;;;;;;;;;;;;;;;6046776;23;1144;-81
2020/12/05 08:42:58;;;;;;;;;;;;;;;;;;6153621;23;993;-82
2020/12/05 08:45:24;;;;;;;;;;;;;;;;;;6153904;23;1901;-80
2020/12/05 08:47:51;;;;;;;;;;;;;;;;;;6155185;23;1055;-81
2020/12/05 08:50:26;;;;;;;;;;;;;;;;;;6157732;23;1069;-81
2020/12/05 08:52:53;;;;;;;;;;;;;;;;;;6159462;23;1331;-80
2020/12/05 08:55:23;;;;;;;;;;;;;;;;;;6160121;23;1494;-82
2020/12/05 08:57:55;;;;;;;;;;;;;;;;;;6161745;23;1274;-82
2020/12/05 09:00:22;;;;;;;;;;;;;;;;;;6169950;23;1020;-83
2020/12/05 09:02:48;;;;;;;;;;;;;;;;;;6173933;23;1129;-83
2020/12/05 09:05:14;;;;;;;;;;;;;;;;;;6174446;23;1878;-82
2020/12/05 09:07:51;;;;;;;;;;;;;;;;;;6176073;23;999;-83
2020/12/05 09:10:17;;;;;;;;;;;;;;;;;;6176582;23;1103;-83
2020/12/05 09:12:44;;;;;;;;;;;;;;;;;;6176894;23;1158;-83
2020/12/05 09:15:10;;;;;;;;;;;;;;;;;;6199589;23;1496;-83
2020/12/05 09:17:36;;;;;;;;;;;;;;;;;;6174869;23;1146;-83
2020/12/05 09:20:11;;;;;;;;;;;;;;;;;;6175036;23;1075;-82
2020/12/05 09:22:37;;;;;;;;;;;;;;;;;;6174784;23;1147;-82
2020/12/05 09:25:06;;;;;;;;;;;;;;;;;;6173972;23;1877;-83
2020/12/05 09:27:36;;;;;;;;;;;;;;;;;;6173394;23;1093;-83
2020/12/05 10:41:22;;;;;;;;;;;;;;;;;;5070645;28;9160;-56
2020/12/05 10:43:48;;;;;;;;;;;;;;;;;;5047159;28;9094;-56
2020/12/05 10:46:14;;;;;;;;;;;;;;;;;;5021195;28;115612;-56
2020/12/05 10:48:40;;;;;;;;;;;;;;;;;;4986612;28;9102;-56
2020/12/05 10:51:06;;;;;;;;;;;;;;;;;;4996343;28;9501;-56
2020/12/05 10:58:48;;;;;;;;;;;;;;;;;;5147988;27;8985;-82
2020/12/05 12:34:27;;;;;;;;;;;;;;;;;;6265324;22;1391384;-82
2020/12/05 12:36:53;;;;;;;;;;;;;;;;;;6276914;23;1227;-84
2020/12/05 12:39:19;;;;;;;;;;;;;;;;;;6277557;23;1609;-83
2020/12/05 12:41:46;;;;;;;;;;;;;;;;;;6274143;23;1932;-81
2020/12/05 12:44:12;;;;;;;;;;;;;;;;;;6231666;23;10350;-82
2020/12/05 12:49:21;;;;;;;;;;;;;;;;;;6183006;23;1207;-81
2020/12/05 12:51:48;;;;;;;;;;;;;;;;;;6159344;23;1161;-82
2020/12/05 12:54:15;;;;;;;;;;;;;;;;;;6183289;23;1646;-82
2020/12/05 12:56:41;;;;;;;;;;;;;;;;;;6183851;23;1055;-82
2020/12/05 12:59:08;;;;;;;;;;;;;;;;;;6158729;23;1099;-82
2020/12/05 13:01:35;;;;;;;;;;;;;;;;;;6183821;23;1923;-82
2020/12/05 13:04:02;;;;;;;;;;;;;;;;;;6183708;23;1249;-82
2020/12/05 13:06:28;;;;;;;;;;;;;;;;;;6159121;23;1094;-82
2020/12/05 13:08:56;;;;;;;;;;;;;;;;;;6183980;23;1102;-83
2020/12/05 13:11:22;;;;;;;;;;;;;;;;;;6182857;23;1657;-82
2020/12/05 13:13:48;;;;;;;;;;;;;;;;;;6158583;23;1228;-82
2020/12/05 13:16:21;;;;;;;;;;;;;;;;;;6183325;23;1465;-82
2020/12/05 13:18:50;;;;;;;;;;;;;;;;;;6179509;23;1146;-82
2020/12/05 13:21:20;;;;;;;;;;;;;;;;;;6126634;23;10699;-82
2020/12/05 13:23:47;;;;;;;;;;;;;;;;;;6151205;23;1890;-82
2020/12/05 13:26:18;;;;;;;;;;;;;;;;;;6154930;23;1210;-82
2020/12/05 13:28:44;;;;;;;;;;;;;;;;;;6153805;23;1155;-82
2020/12/05 13:31:11;;;;;;;;;;;;;;;;;;6130321;23;1145;-83
2020/12/05 13:33:41;;;;;;;;;;;;;;;;;;6154876;23;1231;-82
2020/12/05 13:36:09;;;;;;;;;;;;;;;;;;6148819;23;1197;-83
2020/12/05 13:38:36;;;;;;;;;;;;;;;;;;6147980;23;1128;-82
2020/12/05 13:41:04;;;;;;;;;;;;;;;;;;6149575;23;1030;-82
2020/12/05 13:43:33;;;;;;;;;;;;;;;;;;6149343;23;1870;-82
2020/12/05 13:46:03;;;;;;;;;;;;;;;;;;6149037;23;1211;-82
2020/12/05 13:51:30;;;;;;;;;;;;;;;;;;6149279;23;1002;-83
2020/12/05 13:56:50;;;;;;;;;;;;;;;;;;6146288;23;1115;-81
2020/12/05 13:59:23;;;;;;;;;;;;;;;;;;6145649;23;1419;-82
2020/12/05 14:07:53;;;;;;;;;;;;;;;;;;6147130;23;1916;-82
2020/12/05 14:18:59;;;;;;;;;;;;;;;;;;6089639;23;1460;-83
2020/12/05 14:43:18;;;;;;;;;;;;;;;;;;6068527;23;1935;-82
2020/12/05 14:46:03;;;;;;;;;;;;;;;;;;6016338;23;1111;-81
2020/12/05 14:48:39;;;;;;;;;;;;;;;;;;6046114;23;1151;-81
2020/12/05 14:53:52;;;;;;;;;;;;;;;;;;6117290;23;1172;-82
2020/12/05 14:59:50;;;;;;;;;;;;;;;;;;6117834;23;1038;-81
2020/12/05 15:11:43;;;;;;;;;;;;;;;;;;6119067;23;1704;-82
2020/12/05 15:26:06;;;;;;;;;;;;;;;;;;6026927;23;1662;-82
2020/12/05 15:28:36;;;;;;;;;;;;;;;;;;6027845;23;1291;-83
2020/12/05 15:31:04;;;;;;;;;;;;;;;;;;5935004;23;10332;-83
2020/12/05 15:33:36;;;;;;;;;;;;;;;;;;6000775;23;1353;-82
2020/12/05 15:57:44;;;;;;;;;;;;;;;;;;5894569;24;1156;-83
2020/12/05 16:32:04;;;;;;;;;;;;;;;;;;4;199;153314876;-81
2020/12/05 16:35:08;;;;;;;;;;;;;;;;;;5980375;24;31157;-81
2020/12/05 16:38:19;;;;;;;;;;;;;;;;;;1633506;24;101395504;-81
2020/12/05 17:42:04;;;;;;;;;;;;;;;;;;5844853;24;1937;-82
2020/12/05 17:47:21;;;;;;;;;;;;;;;;;;5933933;24;1468;-82
2020/12/05 17:49:52;;;;;;;;;;;;;;;;;;5959478;24;1069;-81
2020/12/05 17:52:54;;;;;;;;;;;;;;;;;;5970946;24;1017;-82
2020/12/05 17:55:47;;;;;;;;;;;;;;;;;;6036845;23;1147;-81
2020/12/05 18:16:40;;;;;;;;;;;;;;;;;;6087095;23;1537;-82
2020/12/05 18:22:00;;;;;;;;;;;;;;;;;;6084648;23;1443;-80
2020/12/05 18:33:33;;;;;;;;;;;;;;;;;;6082715;23;1157;-81
2020/12/05 18:36:11;;;;;;;;;;;;;;;;;;6081801;23;1163;-81
2020/12/05 18:39:11;;;;;;;;;;;;;;;;;;6082393;23;1183;-81
2020/12/05 18:42:10;;;;;;;;;;;;;;;;;;6087704;23;1310;-80
2020/12/05 18:44:50;;;;;;;;;;;;;;;;;;6102704;23;1159;-81
2020/12/05 18:50:31;;;;;;;;;;;;;;;;;;6141777;23;1723;-81
2020/12/05 18:59:19;;;;;;;;;;;;;;;;;;6175141;23;1444;-81
2020/12/05 19:17:09;;;;;;;;;;;;;;;;;;6023570;23;1053;-79
2020/12/05 19:19:41;;;;;;;;;;;;;;;;;;5947605;23;10988;-82
2020/12/05 19:46:12;;;;;;;;;;;;;;;;;;6044137;23;1240;-81
2020/12/05 19:48:56;;;;;;;;;;;;;;;;;;6044763;23;1117;-80
2020/12/05 19:51:27;;;;;;;;;;;;;;;;;;6048438;23;1509;-79
2020/12/05 19:53:56;;;;;;;;;;;;;;;;;;6041270;23;1116;-80
2020/12/05 19:56:23;;;;;;;;;;;;;;;;;;6022295;23;1393;-80
2020/12/05 19:58:52;;;;;;;;;;;;;;;;;;6042857;23;1559;-80
2020/12/05 20:01:40;;;;;;;;;;;;;;;;;;6042089;23;1633;-82
2020/12/05 20:04:12;;;;;;;;;;;;;;;;;;6044160;23;1901;-80
2020/12/05 20:06:41;;;;;;;;;;;;;;;;;;6047594;23;1605;-81
2020/12/05 20:09:08;;;;;;;;;;;;;;;;;;6039258;23;1502;-81
2020/12/05 20:11:39;;;;;;;;;;;;;;;;;;6040728;23;1594;-80
2020/12/05 20:14:05;;;;;;;;;;;;;;;;;;6039806;23;1075;-79
2020/12/05 20:16:32;;;;;;;;;;;;;;;;;;6039274;23;1156;-79
2020/12/05 20:19:03;;;;;;;;;;;;;;;;;;6034759;23;1180;-80
2020/12/05 20:21:31;;;;;;;;;;;;;;;;;;6013271;23;1342;-79
2020/12/05 20:24:00;;;;;;;;;;;;;;;;;;6038921;23;1874;-79
2020/12/05 20:26:28;;;;;;;;;;;;;;;;;;6055793;23;1687;-80
2020/12/05 20:28:56;;;;;;;;;;;;;;;;;;6125423;23;1446;-79
2020/12/05 20:31:24;;;;;;;;;;;;;;;;;;6125374;23;1482;-79
2020/12/05 20:33:50;;;;;;;;;;;;;;;;;;6123992;23;1231;-79
2020/12/05 20:36:18;;;;;;;;;;;;;;;;;;6123593;23;1180;-79
2020/12/05 20:38:45;;;;;;;;;;;;;;;;;;6124537;23;1090;-80
2020/12/05 20:41:11;;;;;;;;;;;;;;;;;;6126187;23;1007;-80
2020/12/05 20:43:37;;;;;;;;;;;;;;;;;;6149863;23;1949;-80
2020/12/05 20:46:03;;;;;;;;;;;;;;;;;;6155019;23;1122;-78
2020/12/05 20:48:30;;;;;;;;;;;;;;;;;;6158336;23;1515;-80
2020/12/05 20:50:56;;;;;;;;;;;;;;;;;;6155379;23;1099;-79
2020/12/05 20:53:24;;;;;;;;;;;;;;;;;;6156406;23;1100;-78
2020/12/05 20:55:51;;;;;;;;;;;;;;;;;;6155406;23;1203;-79
2020/12/05 20:58:17;;;;;;;;;;;;;;;;;;6154766;23;1159;-80
2020/12/05 21:00:43;;;;;;;;;;;;;;;;;;6155669;23;1152;-79
2020/12/05 21:03:10;;;;;;;;;;;;;;;;;;6130281;23;1965;-79
2020/12/05 21:05:37;;;;;;;;;;;;;;;;;;6157951;23;1661;-80
2020/12/05 21:08:04;;;;;;;;;;;;;;;;;;6160093;23;1104;-81
2020/12/05 21:10:32;;;;;;;;;;;;;;;;;;6161255;23;1512;-80
2020/12/05 21:13:00;;;;;;;;;;;;;;;;;;6157958;23;1044;-80
2020/12/05 21:15:32;;;;;;;;;;;;;;;;;;6161042;23;1515;-80
2020/12/05 21:17:59;;;;;;;;;;;;;;;;;;6157625;23;1432;-80
2020/12/05 21:20:25;;;;;;;;;;;;;;;;;;6156885;23;1436;-80
2020/12/05 21:22:52;;;;;;;;;;;;;;;;;;6112220;23;10743;-80
2020/12/05 21:25:18;;;;;;;;;;;;;;;;;;6130953;23;1234;-80
2020/12/05 21:27:45;;;;;;;;;;;;;;;;;;6158433;23;1524;-80
2020/12/05 21:30:13;;;;;;;;;;;;;;;;;;6155342;23;1391;-78
2020/12/05 21:32:40;;;;;;;;;;;;;;;;;;6153974;23;1088;-79
2020/12/05 21:35:06;;;;;;;;;;;;;;;;;;6153206;23;1626;-78
2020/12/05 21:37:34;;;;;;;;;;;;;;;;;;6152295;23;1151;-80
2020/12/05 21:40:01;;;;;;;;;;;;;;;;;;6151097;23;1143;-79
2020/12/05 21:42:28;;;;;;;;;;;;;;;;;;6151339;23;1944;-79
2020/12/05 21:44:55;;;;;;;;;;;;;;;;;;6151934;23;970;-80
2020/12/05 21:47:23;;;;;;;;;;;;;;;;;;6151773;23;1142;-80
2020/12/05 21:49:50;;;;;;;;;;;;;;;;;;6152830;23;1108;-78
2020/12/05 21:52:16;;;;;;;;;;;;;;;;;;6152570;23;1032;-79
2020/12/05 21:54:44;;;;;;;;;;;;;;;;;;6151789;23;1088;-80
2020/12/05 21:57:10;;;;;;;;;;;;;;;;;;6152916;23;1071;-79
2020/12/05 21:59:36;;;;;;;;;;;;;;;;;;6153072;23;1095;-78
2020/12/05 22:02:03;;;;;;;;;;;;;;;;;;6152836;23;1135;-79
2020/12/05 22:04:30;;;;;;;;;;;;;;;;;;6153028;23;1897;-78
2020/12/05 22:06:56;;;;;;;;;;;;;;;;;;6153415;23;1071;-79
2020/12/05 22:09:22;;;;;;;;;;;;;;;;;;6152939;23;1050;-78
2020/12/05 22:11:50;;;;;;;;;;;;;;;;;;6152853;23;1004;-78
2020/12/05 22:14:16;;;;;;;;;;;;;;;;;;6152865;23;1043;-79
2020/12/05 22:16:45;;;;;;;;;;;;;;;;;;6153123;23;1078;-79
2020/12/05 22:19:11;;;;;;;;;;;;;;;;;;6153224;23;1119;-80
2020/12/05 22:21:38;;;;;;;;;;;;;;;;;;6154361;23;1095;-81
2020/12/05 22:24:04;;;;;;;;;;;;;;;;;;6152610;23;1909;-79
2020/12/05 22:26:31;;;;;;;;;;;;;;;;;;6153973;23;1090;-80
2020/12/05 22:28:57;;;;;;;;;;;;;;;;;;6152722;23;1439;-79
2020/12/05 22:31:24;;;;;;;;;;;;;;;;;;6152545;23;1143;-78
2020/12/05 22:33:50;;;;;;;;;;;;;;;;;;6152880;23;1088;-78
2020/12/05 22:36:16;;;;;;;;;;;;;;;;;;6152234;23;1322;-78
2020/12/05 22:38:45;;;;;;;;;;;;;;;;;;6151137;23;1077;-78
2020/12/05 22:41:11;;;;;;;;;;;;;;;;;;6152082;23;1110;-80
2020/12/05 22:43:37;;;;;;;;;;;;;;;;;;6152423;23;1897;-80
2020/12/05 22:46:04;;;;;;;;;;;;;;;;;;6153387;23;1637;-79
2020/12/05 22:48:30;;;;;;;;;;;;;;;;;;6153042;23;1120;-80
2020/12/05 22:50:57;;;;;;;;;;;;;;;;;;6153747;23;1063;-78
2020/12/05 22:53:23;;;;;;;;;;;;;;;;;;6154474;23;1094;-79
2020/12/05 22:55:50;;;;;;;;;;;;;;;;;;6154355;23;1062;-79
2020/12/05 22:58:16;;;;;;;;;;;;;;;;;;6153835;23;1302;-80
2020/12/05 23:00:45;;;;;;;;;;;;;;;;;;6154221;23;1713;-78
2020/12/05 23:03:11;;;;;;;;;;;;;;;;;;6151888;23;1897;-79
2020/12/05 23:05:39;;;;;;;;;;;;;;;;;;6152374;23;1100;-77
2020/12/05 23:08:05;;;;;;;;;;;;;;;;;;6152232;23;1143;-79
2020/12/05 23:10:32;;;;;;;;;;;;;;;;;;6152843;23;1032;-79
2020/12/05 23:12:59;;;;;;;;;;;;;;;;;;6153401;23;1179;-79
2020/12/05 23:15:26;;;;;;;;;;;;;;;;;;6152536;23;1476;-79
2020/12/05 23:17:52;;;;;;;;;;;;;;;;;;6153188;23;1065;-79
2020/12/05 23:20:18;;;;;;;;;;;;;;;;;;6153683;23;1640;-80
2020/12/05 23:22:46;;;;;;;;;;;;;;;;;;6151407;23;1889;-80
2020/12/05 23:25:12;;;;;;;;;;;;;;;;;;6153333;23;1019;-78
2020/12/05 23:27:38;;;;;;;;;;;;;;;;;;6153804;23;1214;-80
2020/12/05 23:30:14;;;;;;;;;;;;;;;;;;6152437;23;1238;-79
2020/12/05 23:32:44;;;;;;;;;;;;;;;;;;6152965;23;1015;-79
2020/12/05 23:35:10;;;;;;;;;;;;;;;;;;6153345;23;1084;-79
2020/12/05 23:37:36;;;;;;;;;;;;;;;;;;6152513;23;1256;-79
2020/12/05 23:40:04;;;;;;;;;;;;;;;;;;6153264;23;1139;-79
2020/12/05 23:42:30;;;;;;;;;;;;;;;;;;6151751;23;1191;-77
2020/12/05 23:44:56;;;;;;;;;;;;;;;;;;6151814;23;1952;-79
2020/12/05 23:47:23;;;;;;;;;;;;;;;;;;6126748;23;1366;-79
2020/12/05 23:49:49;;;;;;;;;;;;;;;;;;6153038;23;1024;-79
2020/12/05 23:52:15;;;;;;;;;;;;;;;;;;6151722;23;1084;-79
2020/12/05 23:54:42;;;;;;;;;;;;;;;;;;6153447;23;1518;-79
2020/12/05 23:57:09;;;;;;;;;;;;;;;;;;6152798;23;1041;-79
2020/12/05 23:59:35;;;;;;;;;;;;;;;;;;6126294;23;1311;-80
